Decoded METAR Reports


Created by using MetarWeather

Station Name Location Elevation Time Temperature Dew Point RH Heat Index Wind Visibility Pressure Sky Condition Weather Remarks METAR
Alexandroupolis  40.85N 25.92E  3m  26/08/2014 11:20:00  28.0C  16.0C  48%  28.3C    > 10000m  1014.9 mb  Few clouds at 760m
 
      LGAL 260820Z /////KT 9999 FEW025 28/16 Q1015 
Andravida (Civ/A  37.92N 21.27E  12m  26/08/2014 11:20:00  29.0C  16.0C  45%  29.1C  9 km/h, NW (320 degrees)  > 10000m  1013.9 mb           LGAD 260820Z 32005KT CAVOK 29/16 Q1014 
Araxos (Civ/Afb)  38.17N 21.42E  15m  26/08/2014 11:20:00  29.0C  18.0C  52%  29.9C  9 km/h, N (360 degrees)  > 10000m  1013.9 mb           LGRX 260820Z 36005KT CAVOK 29/18 Q1014 NOSIG 
Athens/Elef-Ven  37.93N 23.95E  94m  26/08/2014 11:20:00  29.0C  17.0C  48%  29.5C  26 km/h, NNE (20 degrees)  > 10000m  1013.9 mb  Few clouds at 910m
 
      LGAV 260820Z 02014KT 9999 FEW030 29/17 Q1014 NOSIG 
Chios Airport  38.32N 26.12E  4m  26/08/2014 10:50:00  27.0C  18.0C  58%  27.9C  19 km/h, N (10 degrees)  > 10000m  1010.8 mb           LGHI 260750Z 01010KT CAVOK 27/18 Q1011 
Elefsis (Hel-Afb  38.07N 23.55E  31m  26/08/2014 11:20:00  31.0C  14.0C  36%  30.3C  30 km/h, 48 km/h gusts, N (360 degrees)  > 10000m  1012.9 mb  Few clouds at 1100m
 
      LGEL 260820Z 36016G26KT 9999 FEW035 31/14 Q1013 NOSIG 
Ioannis Kapodist  39.60N 19.92E  2m  26/08/2014 11:20:00  28.0C  21.0C  66%  30.1C  9 km/h, SSE (160 degrees)  > 10000m  1012.9 mb           LGKR 260820Z 16005KT CAVOK 28/21 Q1013 NOSIG 
Iraklion (Civ/Af  35.32N 25.17E  39m  26/08/2014 10:50:00  29.0C  20.0C  58%  30.8C  19 km/h, NW (320 degrees)  > 10000m  1011.9 mb           LGIR 260750Z 32010KT CAVOK 29/20 Q1012 NOSIG 
Kalamata (Hel-Af  37.07N 22.02E  8m  26/08/2014 11:20:00  29.0C  14.0C  40%  28.6C  7 km/h, S (180 degrees)  > 10000m  1013.9 mb  Few clouds at 760m
 
      LGKL 260820Z 18004KT 9999 FEW025 29/14 Q1014 
Karpathos  35.42N 27.15E  20m  26/08/2014 10:50:00  29.0C  22.0C  66%  32.0C  52 km/h, 70 km/h gusts, WNW (300 degrees)  > 10000m  1007.1 mb  Few clouds at 550m
 
      LGKP 260750Z 30028G38KT 9999 FEW018 29/22 Q1007 
Kavala/Chrisoupo  40.92N 24.62E  5m  26/08/2014 11:20:00  26.0C  16.0C  54%  26.7C  11 km/h, E (100 degrees)  > 10000m  1014.9 mb  Few clouds at 910m
 
      LGKV 260820Z 10006KT 9999 FEW030 26/16 Q1015 
Kefallinia  38.12N 20.50E  18m  26/08/2014 10:50:00  26.0C  22.0C  79%  27.6C  6 km/h, Variable  > 10000m  1013.9 mb           LGKF 260750Z VRB03KT CAVOK 26/22 Q1014 
Kos Airport  36.80N 27.08E  130m  26/08/2014 11:20:00  28.0C  18.0C  55%  28.9C  26 km/h, N (10 degrees)  > 10000m  1009.1 mb           LGKO 260820Z 01014KT CAVOK 28/18 Q1009 
Kozani (Civ/Army  40.28N 21.85E  630m  26/08/2014 10:50:00  24.0C  15.0C  57%  25.3C  7 km/h, Variable  > 10000m  1017.9 mb  Few clouds at 2100m
 
      LGKZ 260750Z VRB04KT 9999 FEW070 24/15 Q1018 
Limnos Island Ar  39.92N 25.23E  5m  26/08/2014 11:20:00  26.0C  19.0C  65%  27.1C  26 km/h, NE (40 degrees)  > 10000m  1014.9 mb  Few clouds at 550m
 
      LGLM 260820Z 04014KT 9999 FEW018 26/19 Q1015 
Mikonos Island  37.43N 25.35E  120m  26/08/2014 11:20:00  26.0C  21.0C  74%  27.4C  37 km/h, N (350 degrees)  > 10000m  1011.9 mb  Few clouds at 300m
 
      LGMK 260820Z 35020KT 9999 FEW010 26/21 Q1012 
Mitilini  39.05N 26.60E  17m  26/08/2014 11:20:00  29.0C  20.0C  58%  30.8C  11 km/h, N (350 degrees)  > 10000m  1012.9 mb           LGMT 260820Z 35006KT CAVOK 29/20 Q1013 
Paros  37.00N 25.07E  36m  26/08/2014 10:50:00  28.0C  20.0C  62%  29.7C  26 km/h, N (10 degrees)  > 10000m  1011.9 mb  Few clouds at 910m
 
      LGPA 260750Z 01014KT 9999 FEW030 28/20 Q1012 
Preveza/Aktion  38.62N 20.77E  4m  26/08/2014 11:20:00  29.0C  17.0C  48%  29.5C  Calm  > 10000m  1014.9 mb           LGPZ 260820Z 00000KT CAVOK 29/17 Q1015 NOSIG 
Rhodes/Diagoras  36.40N 28.08E  5m  26/08/2014 11:20:00  30.0C  23.0C  66%  34.2C  22 km/h, WSW (250 degrees)  > 10000m  1007.1 mb           LGRP 260820Z 25012KT CAVOK 30/23 Q1007 NOSIG 
Samos Airport  37.68N 26.92E  6m  26/08/2014 11:20:00  29.0C  15.0C  43%  28.9C  17 km/h, NNE (20 degrees)  > 10000m  1010.2 mb           LGSM 260820Z 02009KT CAVOK 29/15 Q1010 
Santorini Island  36.40N 25.48E  40m  26/08/2014 11:20:00  29.0C  20.0C  58%  30.8C  33 km/h, N (350 degrees)  > 10000m  1010.8 mb           LGSR 260820Z 35018KT CAVOK 29/20 Q1011 NOSIG 
Skiathos Island  39.18N 23.50E  15m  26/08/2014 10:50:00  27.0C  21.0C  70%  28.8C  11 km/h, ENE (60 degrees)  > 10000m  1014.9 mb  Few clouds at 550m
 
      LGSK 260750Z 06006KT 9999 FEW018 27/21 Q1015 
Souda/Khania (Af  35.47N 24.12E  150m  26/08/2014 11:20:00  30.0C  19.0C  52%  31.3C  7 km/h, WNW (300 degrees)  > 10000m  1012.9 mb  Few clouds at 760m
 
      LGSA 260820Z 30004KT 9999 FEW025 30/19 Q1013 
Syros  37.42N 24.95E  72m  26/08/2014 10:50:00  27.0C  20.0C  66%  28.5C  28 km/h, N (10 degrees)  > 10000m  1011.9 mb  Few clouds at 550m
 
      LGSO 260750Z 01015KT 9999 FEW018 27/20 Q1012 
Thessaloniki/Mik  40.52N 22.97E  7m  26/08/2014 11:20:00  28.0C  18.0C  55%  28.9C  17 km/h, W (270 degrees)  > 10000m  1014.9 mb  Few clouds at 550m
Scattered clouds at 760m
 
      LGTS 260820Z 27009KT 9999 FEW018 SCT025 28/18 Q1015 NOSIG 
Zakinthos Airpor  37.75N 20.87E  3m  26/08/2014 11:20:00  29.0C  19.0C  55%  30.3C  11 km/h, NNE (30 degrees)  > 10000m  1013.9 mb           LGZA 260820Z 03006KT CAVOK 29/19 Q1014